YMAV/AVV METAR and TAF weather

Enter ICAO airport designator
Station Type Date Time Source
YMAV METAR 2019/08/23 15:00 UTC NOAA

YMAV 231500Z AUTO 03009KT 9999 // NCD 07/04 Q1017


Station Type Date Time Source
YMAV Decoded METAR 2019/08/23 15:00 UTC NOAA

Station name not available
Aug 23, 2019 - 11:00 AM EDT / 2019.08.23 1500 UTC
Wind: from the NNE (030 degrees) at 10 MPH (9 KT):0
Visibility: greater than 7 mile(s):0
Temperature: 44 F (7 C)
Dew Point: 39 F (4 C)
Relative Humidity: 81%
Pressure (altimeter): 30.03 in. Hg (1017 hPa)
ob: YMAV 231500Z AUTO 03009KT 9999 // NCD 07/04 Q1017
cycle: 15

Station Type Date Time Source
YMAV TAF 2019/08/23 12:48 UTC NOAA

TAF TAF
AMD YMAV 231144Z 2312/2412 36012KT CAVOK
FM232300 34018G28KT CAVOK
FM240300 31015G25KT CAVOK
FM240700 24015G25KT 9999 -SHRA SCT012 BKN020
FM241000 25014KT 9999 -SHRA BKN030
TEMPO 2407/2410 6000 SHRA BKN012

Example: see airport list